Time,TemperatureF,DewpointF,PressureIn,WindDirection,WindDirectionDegrees,WindSpeedMPH,WindSpeedGustMPH,Humidity,HourlyPrecipIn,Conditions,Clouds,dailyrainin,SoftwareType,DateUTC
2013-02-18 00:00:00,30.9,23.9,30.05,WNW,291,1.0,2.0,75,0.00,,,0.00,LWC V2.00 B2112,2013-02-18 08:00:00,
2013-02-18 00:05:00,31.0,24.7,30.05,WNW,291,2.0,2.0,77,0.00,,,0.00,LWC V2.00 B2112,2013-02-18 08:05:00,
2013-02-18 00:10:00,30.9,24.6,30.05,WNW,291,4.0,4.0,77,0.00,,,0.00,LWC V2.00 B2112,2013-02-18 08:10:00,
2013-02-18 00:15:00,30.9,24.2,30.05,WNW,292,4.0,7.0,76,0.00,,,0.00,LWC V2.00 B2112,2013-02-18 08:15:00,
2013-02-18 00:20:00,30.9,24.6,30.05,WNW,292,6.0,6.0,77,0.00,,,0.00,LWC V2.00 B2112,2013-02-18 08:20:00,
2013-02-18 00:25:00,30.7,24.4,30.05,WNW,292,0.0,0.0,77,0.00,,,0.00,LWC V2.00 B2112,2013-02-18 08:25:00,
2013-02-18 00:30:00,30.3,24.3,30.05,WNW,292,2.0,6.0,78,0.00,,,0.00,LWC V2.00 B2112,2013-02-18 08:30:00,
2013-02-18 00:35:00,30.0,23.7,30.05,WNW,292,0.0,0.0,77,0.00,,,0.00,LWC V2.00 B2112,2013-02-18 08:35:00,
2013-02-18 00:40:00,29.8,23.8,30.05,WNW,292,1.0,4.0,78,0.00,,,0.00,LWC V2.00 B2112,2013-02-18 08:40:00,
2013-02-18 00:45:00,29.8,23.8,30.05,WNW,295,2.0,6.0,78,0.00,,,0.00,LWC V2.00 B2112,2013-02-18 08:45:00,
2013-02-18 00:50:00,29.8,24.4,30.05,WNW,295,2.0,6.0,80,0.00,,,0.00,LWC V2.00 B2112,2013-02-18 08:50:00,
2013-02-18 00:55:00,29.8,23.8,30.05,WNW,295,2.0,4.0,78,0.00,,,0.00,LWC V2.00 B2112,2013-02-18 08:55:00,
2013-02-18 01:00:00,29.7,23.7,30.05,WNW,295,1.0,4.0,78,0.00,,,0.00,LWC V2.00 B2112,2013-02-18 09:00:00,
2013-02-18 01:05:00,29.5,23.8,30.05,WNW,295,1.0,4.0,79,0.00,,,0.00,LWC V2.00 B2112,2013-02-18 09:05:00,
2013-02-18 01:10:00,29.4,24.0,30.05,WNW,295,1.0,6.0,80,0.00,,,0.00,LWC V2.00 B2112,2013-02-18 09:10:00,
2013-02-18 01:15:00,29.5,23.2,30.04,WNW,295,4.0,6.0,77,0.00,,,0.00,LWC V2.00 B2112,2013-02-18 09:15:00,
2013-02-18 01:20:00,29.8,23.8,30.04,WNW,284,0.0,4.0,78,0.00,,,0.00,LWC V2.00 B2112,2013-02-18 09:20:00,
2013-02-18 01:25:00,29.7,23.7,30.04,WNW,287,0.0,0.0,78,0.00,,,0.00,LWC V2.00 B2112,2013-02-18 09:25:00,
2013-02-18 01:30:00,29.4,23.4,30.04,WNW,287,2.0,2.0,78,0.00,,,0.00,LWC V2.00 B2112,2013-02-18 09:30:00,
2013-02-18 01:35:00,29.4,23.4,30.04,WNW,287,6.0,6.0,78,0.00,,,0.00,LWC V2.00 B2112,2013-02-18 09:35:00,
2013-02-18 01:40:00,30.3,23.3,30.04,WSW,256,6.0,8.0,75,0.00,,,0.00,LWC V2.00 B2112,2013-02-18 09:40:00,
2013-02-18 01:45:00,30.1,23.5,30.04,West,264,7.0,8.0,76,0.00,,,0.00,LWC V2.00 B2112,2013-02-18 09:45:00,
2013-02-18 01:50:00,30.0,23.4,30.04,West,271,4.0,4.0,76,0.00,,,0.00,LWC V2.00 B2112,2013-02-18 09:50:00,
2013-02-18 01:55:00,29.8,23.8,30.04,West,281,4.0,6.0,78,0.00,,,0.00,LWC V2.00 B2112,2013-02-18 09:55:00,
2013-02-18 02:00:00,30.0,23.4,30.04,West,275,6.0,8.0,76,0.00,,,0.00,LWC V2.00 B2112,2013-02-18 10:00:00,
2013-02-18 02:05:00,29.8,23.2,30.04,West,275,0.0,2.0,76,0.00,,,0.00,LWC V2.00 B2112,2013-02-18 10:05:00,
2013-02-18 02:10:00,29.5,23.5,30.04,West,277,4.0,7.0,78,0.00,,,0.00,LWC V2.00 B2112,2013-02-18 10:10:00,
2013-02-18 02:15:00,29.8,22.5,30.03,WNW,282,4.0,8.0,74,0.00,,,0.00,LWC V2.00 B2112,2013-02-18 10:15:00,
2013-02-18 02:20:00,29.5,23.2,30.03,WNW,282,2.0,4.0,77,0.00,,,0.00,LWC V2.00 B2112,2013-02-18 10:20:00,
2013-02-18 02:25:00,29.5,22.6,30.03,WNW,289,0.0,2.0,75,0.00,,,0.00,LWC V2.00 B2112,2013-02-18 10:25:00,
2013-02-18 02:30:00,29.4,22.8,30.03,WNW,289,2.0,2.0,76,0.00,,,0.00,LWC V2.00 B2112,2013-02-18 10:30:00,
2013-02-18 02:35:00,29.3,22.4,30.03,WNW,292,6.0,6.0,75,0.00,,,0.00,LWC V2.00 B2112,2013-02-18 10:35:00,
2013-02-18 02:40:00,29.4,23.1,30.03,West,275,4.0,7.0,77,0.00,,,0.00,LWC V2.00 B2112,2013-02-18 10:40:00,
2013-02-18 02:45:00,29.4,22.8,30.03,West,275,0.0,2.0,76,0.00,,,0.00,LWC V2.00 B2112,2013-02-18 10:45:00,
2013-02-18 02:50:00,29.1,22.5,30.03,West,275,6.0,6.0,76,0.00,,,0.00,LWC V2.00 B2112,2013-02-18 10:50:00,
2013-02-18 02:55:00,29.3,23.0,30.03,West,277,2.0,6.0,77,0.00,,,0.00,LWC V2.00 B2112,2013-02-18 10:55:00,
2013-02-18 03:00:00,29.0,22.7,30.03,West,277,0.0,1.0,77,0.00,,,0.00,LWC V2.00 B2112,2013-02-18 11:00:00,
2013-02-18 03:05:00,28.7,23.0,30.03,West,277,0.0,2.0,79,0.00,,,0.00,LWC V2.00 B2112,2013-02-18 11:05:00,
2013-02-18 03:10:00,28.5,22.8,30.03,West,277,4.0,6.0,79,0.00,,,0.00,LWC V2.00 B2112,2013-02-18 11:10:00,
2013-02-18 03:15:00,28.8,22.8,30.03,West,277,4.0,6.0,78,0.00,,,0.00,LWC V2.00 B2112,2013-02-18 11:15:00,
2013-02-18 03:20:00,29.0,23.0,30.03,West,277,4.0,6.0,78,0.00,,,0.00,LWC V2.00 B2112,2013-02-18 11:20:00,
2013-02-18 03:25:00,28.7,23.0,30.03,West,277,2.0,4.0,79,0.00,,,0.00,LWC V2.00 B2112,2013-02-18 11:25:00,
2013-02-18 03:30:00,28.7,22.7,30.03,WNW,301,1.0,2.0,78,0.00,,,0.00,LWC V2.00 B2112,2013-02-18 11:30:00,
2013-02-18 03:35:00,28.5,22.8,30.03,WNW,301,0.0,0.0,79,0.00,,,0.00,LWC V2.00 B2112,2013-02-18 11:35:00,
2013-02-18 03:40:00,28.4,22.7,30.03,NW,306,0.0,4.0,79,0.00,,,0.00,LWC V2.00 B2112,2013-02-18 11:40:00,
2013-02-18 03:45:00,28.4,22.7,30.02,NW,306,1.0,2.0,79,0.00,,,0.00,LWC V2.00 B2112,2013-02-18 11:45:00,
2013-02-18 03:50:00,28.2,22.8,30.02,NW,306,2.0,4.0,80,0.00,,,0.00,LWC V2.00 B2112,2013-02-18 11:50:00,
2013-02-18 03:55:00,28.1,22.7,30.02,NW,306,4.0,6.0,80,0.00,,,0.00,LWC V2.00 B2112,2013-02-18 11:55:00,
2013-02-18 04:00:00,28.1,22.1,30.02,NW,306,2.0,2.0,78,0.00,,,0.00,LWC V2.00 B2112,2013-02-18 12:00:00,
2013-02-18 04:05:00,28.1,22.7,30.02,NW,306,2.0,4.0,80,0.00,,,0.00,LWC V2.00 B2112,2013-02-18 12:05:00,
2013-02-18 04:10:00,28.1,23.0,30.02,NW,306,2.0,7.0,81,0.00,,,0.00,LWC V2.00 B2112,2013-02-18 12:10:00,
2013-02-18 04:15:00,28.4,23.0,30.02,NW,306,2.0,6.0,80,0.00,,,0.00,LWC V2.00 B2112,2013-02-18 12:15:00,
2013-02-18 04:20:00,28.5,22.5,30.02,West,275,2.0,6.0,78,0.00,,,0.00,LWC V2.00 B2112,2013-02-18 12:20:00,
2013-02-18 04:25:00,28.2,21.9,30.02,West,281,2.0,4.0,77,0.00,,,0.00,LWC V2.00 B2112,2013-02-18 12:25:00,
2013-02-18 04:30:00,28.1,22.4,30.02,WNW,295,4.0,8.0,79,0.00,,,0.00,LWC V2.00 B2112,2013-02-18 12:30:00,
2013-02-18 04:35:00,28.2,22.5,30.02,WNW,295,2.0,4.0,79,0.00,,,0.00,LWC V2.00 B2112,2013-02-18 12:35:00,
2013-02-18 04:40:00,28.1,22.1,30.02,WNW,296,6.0,6.0,78,0.00,,,0.00,LWC V2.00 B2112,2013-02-18 12:40:00,
2013-02-18 04:45:00,28.2,21.9,30.02,WNW,296,6.0,7.0,77,0.00,,,0.00,LWC V2.00 B2112,2013-02-18 12:45:00,
2013-02-18 04:50:00,28.4,22.4,30.02,NNW,347,2.0,8.0,78,0.00,,,0.00,LWC V2.00 B2112,2013-02-18 12:50:00,
2013-02-18 04:55:00,28.5,22.5,30.02,NW,312,6.0,6.0,78,0.00,,,0.00,LWC V2.00 B2112,2013-02-18 12:55:00,
2013-02-18 05:00:00,28.4,22.4,30.02,NW,306,2.0,7.0,78,0.00,,,0.00,LWC V2.00 B2112,2013-02-18 13:00:00,
2013-02-18 05:05:00,28.2,22.5,30.02,WNW,296,4.0,6.0,79,0.00,,,0.00,LWC V2.00 B2112,2013-02-18 13:05:00,
2013-02-18 05:10:00,28.1,21.8,30.02,NW,304,6.0,7.0,77,0.00,,,0.00,LWC V2.00 B2112,2013-02-18 13:10:00,
2013-02-18 05:15:00,28.2,21.9,30.02,WNW,285,4.0,8.0,77,0.00,,,0.00,LWC V2.00 B2112,2013-02-18 13:15:00,
2013-02-18 05:20:00,28.2,22.2,30.02,WNW,287,6.0,7.0,78,0.00,,,0.00,LWC V2.00 B2112,2013-02-18 13:20:00,
2013-02-18 05:25:00,28.2,21.9,30.02,NW,304,2.0,6.0,77,0.00,,,0.00,LWC V2.00 B2112,2013-02-18 13:25:00,
2013-02-18 05:30:00,28.4,22.4,30.02,NW,320,1.0,6.0,78,0.00,,,0.00,LWC V2.00 B2112,2013-02-18 13:30:00,
2013-02-18 05:35:00,28.1,22.1,30.02,NW,320,1.0,2.0,78,0.00,,,0.00,LWC V2.00 B2112,2013-02-18 13:35:00,
2013-02-18 05:40:00,28.1,21.8,30.02,West,272,2.0,8.0,77,0.00,,,0.00,LWC V2.00 B2112,2013-02-18 13:40:00,
2013-02-18 05:45:00,28.2,21.9,30.01,West,278,2.0,4.0,77,0.00,,,0.00,LWC V2.00 B2112,2013-02-18 13:45:00,
2013-02-18 05:50:00,28.2,22.2,30.01,NW,323,6.0,7.0,78,0.00,,,0.00,LWC V2.00 B2112,2013-02-18 13:50:00,
2013-02-18 05:55:00,28.4,22.1,30.01,WNW,292,4.0,6.0,77,0.00,,,0.00,LWC V2.00 B2112,2013-02-18 13:55:00,
2013-02-18 06:00:00,28.5,21.9,30.01,NW,319,4.0,4.0,76,0.00,,,0.00,LWC V2.00 B2112,2013-02-18 14:00:00,
2013-02-18 06:05:00,28.7,22.1,30.01,WNW,302,4.0,6.0,76,0.00,,,0.00,LWC V2.00 B2112,2013-02-18 14:05:00,
2013-02-18 06:10:00,28.5,21.9,30.01,WNW,302,0.0,2.0,76,0.00,,,0.00,LWC V2.00 B2112,2013-02-18 14:10:00,
2013-02-18 06:15:00,28.5,21.9,30.00,NW,312,4.0,6.0,76,0.00,,,0.00,LWC V2.00 B2112,2013-02-18 14:15:00,
2013-02-18 06:20:00,28.5,21.9,30.00,NNW,337,1.0,6.0,76,0.00,,,0.00,LWC V2.00 B2112,2013-02-18 14:20:00,
2013-02-18 06:25:00,28.4,22.4,30.00,NNW,328,4.0,4.0,78,0.00,,,0.00,LWC V2.00 B2112,2013-02-18 14:25:00,
2013-02-18 06:30:00,28.4,22.1,30.00,NNW,328,0.0,4.0,77,0.00,,,0.00,LWC V2.00 B2112,2013-02-18 14:30:00,
2013-02-18 06:35:00,28.4,22.1,30.00,NNW,328,0.0,0.0,77,0.00,,,0.00,LWC V2.00 B2112,2013-02-18 14:35:00,
2013-02-18 06:40:00,28.4,22.1,30.00,NNW,328,0.0,0.0,77,0.00,,,0.00,LWC V2.00 B2112,2013-02-18 14:40:00,
2013-02-18 06:45:00,28.4,22.1,30.00,NNW,328,0.0,0.0,77,0.00,,,0.00,LWC V2.00 B2112,2013-02-18 14:45:00,
2013-02-18 06:50:00,28.4,22.1,30.00,NW,326,4.0,4.0,77,0.00,,,0.00,LWC V2.00 B2112,2013-02-18 14:50:00,
2013-02-18 06:55:00,28.2,21.9,30.00,NW,320,2.0,4.0,77,0.00,,,0.00,LWC V2.00 B2112,2013-02-18 14:55:00,
2013-02-18 07:00:00,28.2,21.9,30.00,NW,318,4.0,4.0,77,0.00,,,0.00,LWC V2.00 B2112,2013-02-18 15:00:00,
2013-02-18 07:05:00,28.2,21.9,30.00,NW,318,2.0,2.0,77,0.00,,,0.00,LWC V2.00 B2112,2013-02-18 15:05:00,
2013-02-18 07:10:00,28.2,21.9,30.00,NW,319,1.0,1.0,77,0.00,,,0.00,LWC V2.00 B2112,2013-02-18 15:10:00,
2013-02-18 07:15:00,28.2,21.9,30.00,West,272,4.0,4.0,77,0.00,,,0.00,LWC V2.00 B2112,2013-02-18 15:15:00,
2013-02-18 07:20:00,28.2,21.9,30.00,West,280,4.0,6.0,77,0.00,,,0.00,LWC V2.00 B2112,2013-02-18 15:20:00,
2013-02-18 07:25:00,28.2,22.2,30.00,West,281,2.0,2.0,78,0.00,,,0.00,LWC V2.00 B2112,2013-02-18 15:25:00,
2013-02-18 07:30:00,28.1,22.1,29.99,WNW,291,4.0,4.0,78,0.00,,,0.00,LWC V2.00 B2112,2013-02-18 15:30:00,
2013-02-18 07:35:00,28.1,22.1,29.99,NW,304,2.0,2.0,78,0.00,,,0.00,LWC V2.00 B2112,2013-02-18 15:35:00,
2013-02-18 07:40:00,28.1,22.1,29.99,NW,325,4.0,4.0,78,0.00,,,0.00,LWC V2.00 B2112,2013-02-18 15:40:00,
2013-02-18 07:45:00,28.5,22.5,29.99,NNW,333,2.0,6.0,78,0.00,,,0.00,LWC V2.00 B2112,2013-02-18 15:45:00,
2013-02-18 07:50:00,28.7,22.1,29.99,WNW,296,2.0,4.0,76,0.00,,,0.00,LWC V2.00 B2112,2013-02-18 15:50:00,
2013-02-18 07:55:00,28.5,22.2,29.99,WNW,299,6.0,7.0,77,0.00,,,0.00,LWC V2.00 B2112,2013-02-18 15:55:00,
2013-02-18 08:00:00,28.7,22.1,29.99,NW,309,7.0,7.0,76,0.00,,,0.00,LWC V2.00 B2112,2013-02-18 16:00:00,
2013-02-18 08:05:00,28.8,22.5,29.99,NW,311,1.0,6.0,77,0.00,,,0.00,LWC V2.00 B2112,2013-02-18 16:05:00,
2013-02-18 08:10:00,29.0,22.1,29.99,NW,311,1.0,4.0,75,0.00,,,0.00,LWC V2.00 B2112,2013-02-18 16:10:00,
2013-02-18 08:15:00,29.0,22.4,29.99,NW,311,0.0,0.0,76,0.00,,,0.00,LWC V2.00 B2112,2013-02-18 16:15:00,
2013-02-18 08:20:00,29.1,22.2,29.99,NW,311,2.0,4.0,75,0.00,,,0.00,LWC V2.00 B2112,2013-02-18 16:20:00,
2013-02-18 08:25:00,29.4,22.5,29.99,NW,311,0.0,0.0,75,0.00,,,0.00,LWC V2.00 B2112,2013-02-18 16:25:00,
2013-02-18 08:30:00,29.4,22.5,29.99,NW,311,0.0,0.0,75,0.00,,,0.00,LWC V2.00 B2112,2013-02-18 16:30:00,
2013-02-18 08:35:00,29.5,22.9,29.99,NW,311,0.0,0.0,76,0.00,,,0.00,LWC V2.00 B2112,2013-02-18 16:35:00,
2013-02-18 08:40:00,29.7,23.1,29.99,NW,311,0.0,0.0,76,0.00,,,0.00,LWC V2.00 B2112,2013-02-18 16:40:00,
2013-02-18 08:45:00,30.0,22.7,29.98,NW,311,0.0,0.0,74,0.00,,,0.00,LWC V2.00 B2112,2013-02-18 16:45:00,
2013-02-18 08:50:00,30.0,22.4,29.98,NW,311,0.0,0.0,73,0.00,,,0.00,LWC V2.00 B2112,2013-02-18 16:50:00,
2013-02-18 08:55:00,30.3,22.7,29.98,NW,311,0.0,0.0,73,0.00,,,0.00,LWC V2.00 B2112,2013-02-18 16:55:00,
2013-02-18 09:00:00,30.6,22.7,29.98,NW,311,0.0,0.0,72,0.00,,,0.00,LWC V2.00 B2112,2013-02-18 17:00:00,
2013-02-18 09:05:00,31.0,23.0,29.98,NW,311,0.0,0.0,72,0.00,,,0.00,LWC V2.00 B2112,2013-02-18 17:05:00,
2013-02-18 09:10:00,31.3,22.7,29.98,NW,311,0.0,0.0,70,0.00,,,0.00,LWC V2.00 B2112,2013-02-18 17:10:00,
2013-02-18 09:15:00,31.3,22.7,29.98,NW,311,0.0,0.0,70,0.00,,,0.00,LWC V2.00 B2112,2013-02-18 17:15:00,
2013-02-18 09:20:00,31.3,23.3,29.98,NW,311,0.0,0.0,72,0.00,,,0.00,LWC V2.00 B2112,2013-02-18 17:20:00,
2013-02-18 09:25:00,31.3,22.7,29.98,NW,311,0.0,0.0,70,0.00,,,0.00,LWC V2.00 B2112,2013-02-18 17:25:00,
2013-02-18 09:30:00,31.6,23.3,29.98,NW,311,0.0,0.0,71,0.00,,,0.00,LWC V2.00 B2112,2013-02-18 17:30:00,
2013-02-18 09:35:00,31.8,23.1,29.98,NW,311,0.0,0.0,70,0.00,,,0.00,LWC V2.00 B2112,2013-02-18 17:35:00,
2013-02-18 09:40:00,32.1,23.4,29.98,NW,311,0.0,0.0,70,0.00,,,0.00,LWC V2.00 B2112,2013-02-18 17:40:00,
2013-02-18 09:45:00,32.4,23.4,29.98,NW,311,0.0,0.0,69,0.00,,,0.00,LWC V2.00 B2112,2013-02-18 17:45:00,
2013-02-18 09:50:00,32.8,23.4,29.98,NW,311,0.0,0.0,68,0.00,,,0.00,LWC V2.00 B2112,2013-02-18 17:50:00,
2013-02-18 09:55:00,33.1,23.4,29.98,NW,311,0.0,0.0,67,0.00,,,0.00,LWC V2.00 B2112,2013-02-18 17:55:00,
2013-02-18 10:00:00,33.4,23.6,29.97,NW,311,0.0,0.0,67,0.00,,,0.00,LWC V2.00 B2112,2013-02-18 18:00:00,
2013-02-18 10:05:00,33.5,23.7,29.97,NW,311,0.0,0.0,67,0.00,,,0.00,LWC V2.00 B2112,2013-02-18 18:05:00,
2013-02-18 10:10:00,33.7,23.9,29.97,NW,311,0.0,0.0,67,0.00,,,0.00,LWC V2.00 B2112,2013-02-18 18:10:00,
2013-02-18 10:15:00,34.0,24.2,29.96,NW,311,0.0,0.0,67,0.00,,,0.00,LWC V2.00 B2112,2013-02-18 18:15:00,
2013-02-18 10:20:00,34.0,23.9,29.96,NW,311,0.0,0.0,66,0.00,,,0.00,LWC V2.00 B2112,2013-02-18 18:20:00,
2013-02-18 10:25:00,34.0,23.5,29.96,NW,311,0.0,0.0,65,0.00,,,0.00,LWC V2.00 B2112,2013-02-18 18:25:00,
2013-02-18 10:30:00,34.3,23.8,29.96,NW,311,0.0,0.0,65,0.00,,,0.00,LWC V2.00 B2112,2013-02-18 18:30:00,
2013-02-18 10:35:00,34.7,23.8,29.96,NW,311,0.0,0.0,64,0.00,,,0.00,LWC V2.00 B2112,2013-02-18 18:35:00,
2013-02-18 10:40:00,34.9,23.2,29.96,NW,311,0.0,0.0,62,0.00,,,0.00,LWC V2.00 B2112,2013-02-18 18:40:00,
2013-02-18 10:45:00,35.0,23.3,29.96,NW,311,0.0,0.0,62,0.00,,,0.00,LWC V2.00 B2112,2013-02-18 18:45:00,
2013-02-18 10:50:00,35.2,23.9,29.96,NW,311,1.0,1.0,63,0.00,,,0.00,LWC V2.00 B2112,2013-02-18 18:50:00,
2013-02-18 10:55:00,35.2,23.5,29.96,NW,311,0.0,1.0,62,0.00,,,0.00,LWC V2.00 B2112,2013-02-18 18:55:00,
2013-02-18 11:00:00,35.3,24.0,29.96,NW,311,1.0,1.0,63,0.00,,,0.00,LWC V2.00 B2112,2013-02-18 19:00:00,
2013-02-18 11:05:00,35.2,24.3,29.96,NW,311,0.0,2.0,64,0.00,,,0.00,LWC V2.00 B2112,2013-02-18 19:05:00,
2013-02-18 11:10:00,35.2,23.9,29.96,NW,311,0.0,0.0,63,0.00,,,0.00,LWC V2.00 B2112,2013-02-18 19:10:00,
2013-02-18 11:15:00,35.3,24.0,29.95,NW,311,0.0,0.0,63,0.00,,,0.00,LWC V2.00 B2112,2013-02-18 19:15:00,
2013-02-18 11:20:00,35.5,24.2,29.95,NW,311,0.0,0.0,63,0.00,,,0.00,LWC V2.00 B2112,2013-02-18 19:20:00,
2013-02-18 11:25:00,35.8,24.5,29.95,NW,311,0.0,0.0,63,0.00,,,0.00,LWC V2.00 B2112,2013-02-18 19:25:00,
2013-02-18 11:30:00,36.2,24.5,29.94,NW,311,0.0,0.0,62,0.00,,,0.00,LWC V2.00 B2112,2013-02-18 19:30:00,
2013-02-18 11:35:00,36.5,24.3,29.94,NW,311,0.0,0.0,61,0.00,,,0.00,LWC V2.00 B2112,2013-02-18 19:35:00,
2013-02-18 11:40:00,36.6,24.4,29.94,NW,311,0.0,0.0,61,0.00,,,0.00,LWC V2.00 B2112,2013-02-18 19:40:00,
2013-02-18 11:45:00,36.9,25.1,29.94,NW,311,0.0,0.0,62,0.00,,,0.00,LWC V2.00 B2112,2013-02-18 19:45:00,
2013-02-18 11:50:00,37.5,26.1,29.94,NW,311,0.0,0.0,63,0.00,,,0.00,LWC V2.00 B2112,2013-02-18 19:50:00,
2013-02-18 11:55:00,37.8,24.8,29.94,NW,311,0.0,0.0,59,0.00,,,0.00,LWC V2.00 B2112,2013-02-18 19:55:00,
2013-02-18 12:00:00,38.0,25.4,29.92,NW,311,0.0,0.0,60,0.00,,,0.00,LWC V2.00 B2112,2013-02-18 20:00:00,
2013-02-18 12:05:00,38.3,26.0,29.92,NW,311,0.0,0.0,61,0.00,,,0.00,LWC V2.00 B2112,2013-02-18 20:05:00,
2013-02-18 12:10:00,38.5,26.2,29.92,NW,311,0.0,0.0,61,0.00,,,0.00,LWC V2.00 B2112,2013-02-18 20:10:00,
2013-02-18 12:15:00,38.3,26.4,29.91,NW,311,0.0,1.0,62,0.00,,,0.00,LWC V2.00 B2112,2013-02-18 20:15:00,
2013-02-18 12:20:00,38.3,26.4,29.91,NW,311,0.0,0.0,62,0.00,,,0.00,LWC V2.00 B2112,2013-02-18 20:20:00,
2013-02-18 12:25:00,38.6,26.3,29.91,NW,311,0.0,0.0,61,0.00,,,0.00,LWC V2.00 B2112,2013-02-18 20:25:00,
2013-02-18 12:30:00,38.8,26.1,29.90,SSE,147,0.0,8.0,60,0.00,,,0.00,LWC V2.00 B2112,2013-02-18 20:30:00,
2013-02-18 12:35:00,38.8,26.1,29.90,SE,141,0.0,2.0,60,0.00,,,0.00,LWC V2.00 B2112,2013-02-18 20:35:00,
2013-02-18 12:40:00,38.5,25.8,29.90,SE,140,1.0,6.0,60,0.00,,,0.00,LWC V2.00 B2112,2013-02-18 20:40:00,
2013-02-18 12:45:00,38.5,26.2,29.90,SE,140,0.0,0.0,61,0.00,,,0.00,LWC V2.00 B2112,2013-02-18 20:45:00,
2013-02-18 12:50:00,38.6,26.3,29.90,SE,140,0.0,0.0,61,0.00,,,0.00,LWC V2.00 B2112,2013-02-18 20:50:00,
2013-02-18 12:55:00,39.1,26.8,29.90,SE,140,0.0,0.0,61,0.00,,,0.00,LWC V2.00 B2112,2013-02-18 20:55:00,
2013-02-18 13:00:00,39.1,26.4,29.89,SE,140,0.0,0.0,60,0.00,,,0.00,LWC V2.00 B2112,2013-02-18 21:00:00,
2013-02-18 13:05:00,39.2,26.9,29.89,NE,54,1.0,1.0,61,0.00,,,0.00,LWC V2.00 B2112,2013-02-18 21:05:00,
2013-02-18 13:10:00,39.3,27.0,29.89,NE,38,0.0,2.0,61,0.00,,,0.00,LWC V2.00 B2112,2013-02-18 21:10:00,
2013-02-18 13:15:00,39.8,27.1,29.88,NNE,32,0.0,0.0,60,0.00,,,0.00,LWC V2.00 B2112,2013-02-18 21:15:00,
2013-02-18 13:20:00,40.2,27.0,29.88,NNE,32,0.0,0.0,59,0.00,,,0.00,LWC V2.00 B2112,2013-02-18 21:20:00,
2013-02-18 13:25:00,40.1,26.9,29.88,East,99,0.0,2.0,59,0.00,,,0.00,LWC V2.00 B2112,2013-02-18 21:25:00,
2013-02-18 13:30:00,39.6,26.9,29.88,East,99,0.0,1.0,60,0.00,,,0.00,LWC V2.00 B2112,2013-02-18 21:30:00,
2013-02-18 13:35:00,39.3,26.6,29.88,East,99,0.0,0.0,60,0.00,,,0.00,LWC V2.00 B2112,2013-02-18 21:35:00,
2013-02-18 13:40:00,39.2,26.9,29.88,East,99,0.0,1.0,61,0.00,,,0.00,LWC V2.00 B2112,2013-02-18 21:40:00,
2013-02-18 13:45:00,38.9,26.6,29.88,ESE,102,0.0,1.0,61,0.00,,,0.00,LWC V2.00 B2112,2013-02-18 21:45:00,
2013-02-18 13:50:00,38.8,26.5,29.88,ESE,102,0.0,4.0,61,0.00,,,0.00,LWC V2.00 B2112,2013-02-18 21:50:00,
2013-02-18 13:55:00,39.1,26.8,29.88,ESE,102,0.0,0.0,61,0.00,,,0.00,LWC V2.00 B2112,2013-02-18 21:55:00,
2013-02-18 14:00:00,39.2,26.9,29.87,South,178,0.0,4.0,61,0.00,,,0.00,LWC V2.00 B2112,2013-02-18 22:00:00,
2013-02-18 14:05:00,39.2,26.9,29.87,South,172,4.0,6.0,61,0.00,,,0.00,LWC V2.00 B2112,2013-02-18 22:05:00,
2013-02-18 14:10:00,39.2,26.9,29.87,South,169,0.0,2.0,61,0.00,,,0.00,LWC V2.00 B2112,2013-02-18 22:10:00,
2013-02-18 14:15:00,39.3,27.0,29.88,South,171,1.0,1.0,61,0.00,,,0.00,LWC V2.00 B2112,2013-02-18 22:15:00,
2013-02-18 14:20:00,39.2,27.3,29.88,South,189,0.0,1.0,62,0.00,,,0.00,LWC V2.00 B2112,2013-02-18 22:20:00,
2013-02-18 14:25:00,39.2,26.9,29.88,SSE,165,0.0,2.0,61,0.00,,,0.00,LWC V2.00 B2112,2013-02-18 22:25:00,
2013-02-18 14:30:00,39.1,27.2,29.87,SSE,167,0.0,0.0,62,0.00,,,0.00,LWC V2.00 B2112,2013-02-18 22:30:00,
2013-02-18 14:35:00,39.2,27.3,29.87,SSE,167,0.0,0.0,62,0.00,,,0.00,LWC V2.00 B2112,2013-02-18 22:35:00,
2013-02-18 14:40:00,39.2,27.3,29.87,SSE,168,0.0,4.0,62,0.00,,,0.00,LWC V2.00 B2112,2013-02-18 22:40:00,
2013-02-18 14:45:00,39.1,27.6,29.87,SSE,160,1.0,1.0,63,0.00,,,0.00,LWC V2.00 B2112,2013-02-18 22:45:00,
2013-02-18 14:50:00,39.1,27.6,29.87,SSE,147,1.0,4.0,63,0.00,,,0.00,LWC V2.00 B2112,2013-02-18 22:50:00,
2013-02-18 14:55:00,39.1,28.0,29.87,SSE,147,0.0,0.0,64,0.00,,,0.00,LWC V2.00 B2112,2013-02-18 22:55:00,
2013-02-18 15:00:00,39.1,28.0,29.86,SE,145,0.0,2.0,64,0.00,,,0.00,LWC V2.00 B2112,2013-02-18 23:00:00,
2013-02-18 15:05:00,39.1,27.6,29.86,SE,145,0.0,1.0,63,0.00,,,0.00,LWC V2.00 B2112,2013-02-18 23:05:00,
2013-02-18 15:10:00,39.2,28.1,29.86,SE,145,0.0,0.0,64,0.00,,,0.00,LWC V2.00 B2112,2013-02-18 23:10:00,
2013-02-18 15:15:00,39.2,28.1,29.86,SE,145,0.0,2.0,64,0.00,,,0.00,LWC V2.00 B2112,2013-02-18 23:15:00,
2013-02-18 15:20:00,39.2,28.1,29.86,SE,145,0.0,0.0,64,0.00,,,0.00,LWC V2.00 B2112,2013-02-18 23:20:00,
2013-02-18 15:25:00,39.3,28.2,29.86,SE,145,0.0,0.0,64,0.00,,,0.00,LWC V2.00 B2112,2013-02-18 23:25:00,
2013-02-18 15:30:00,39.3,28.2,29.85,SE,145,0.0,0.0,64,0.00,,,0.00,LWC V2.00 B2112,2013-02-18 23:30:00,
2013-02-18 15:35:00,39.2,28.1,29.85,SE,145,0.0,0.0,64,0.00,,,0.00,LWC V2.00 B2112,2013-02-18 23:35:00,
2013-02-18 15:40:00,39.1,28.0,29.85,SE,145,0.0,2.0,64,0.00,,,0.00,LWC V2.00 B2112,2013-02-18 23:40:00,
2013-02-18 15:45:00,38.9,27.8,29.85,SE,145,0.0,1.0,64,0.00,,,0.00,LWC V2.00 B2112,2013-02-18 23:45:00,
2013-02-18 15:50:00,38.8,27.7,29.85,SE,145,0.0,0.0,64,0.00,,,0.00,LWC V2.00 B2112,2013-02-18 23:50:00,
2013-02-18 15:55:00,38.8,28.1,29.85,SE,145,0.0,0.0,65,0.00,,,0.00,LWC V2.00 B2112,2013-02-18 23:55:00,
2013-02-18 16:00:00,38.9,27.8,29.85,SE,145,0.0,0.0,64,0.00,,,0.00,LWC V2.00 B2112,2013-02-19 00:00:00,
2013-02-18 16:05:00,39.1,28.0,29.85,SE,145,0.0,0.0,64,0.00,,,0.00,LWC V2.00 B2112,2013-02-19 00:05:00,
2013-02-18 16:10:00,39.2,27.7,29.85,SE,145,0.0,0.0,63,0.00,,,0.00,LWC V2.00 B2112,2013-02-19 00:10:00,
2013-02-18 16:15:00,39.2,27.7,29.84,SE,145,0.0,0.0,63,0.00,,,0.00,LWC V2.00 B2112,2013-02-19 00:15:00,
2013-02-18 16:20:00,39.2,27.7,29.84,SE,145,0.0,0.0,63,0.00,,,0.00,LWC V2.00 B2112,2013-02-19 00:20:00,
2013-02-18 16:25:00,39.1,27.2,29.84,SE,145,0.0,0.0,62,0.00,,,0.00,LWC V2.00 B2112,2013-02-19 00:25:00,
2013-02-18 16:30:00,38.9,27.4,29.84,SE,145,0.0,0.0,63,0.00,,,0.00,LWC V2.00 B2112,2013-02-19 00:30:00,
2013-02-18 16:35:00,38.8,27.7,29.84,SE,145,0.0,0.0,64,0.00,,,0.00,LWC V2.00 B2112,2013-02-19 00:35:00,
2013-02-18 16:40:00,38.8,27.7,29.84,SE,145,0.0,0.0,64,0.00,,,0.00,LWC V2.00 B2112,2013-02-19 00:40:00,
2013-02-18 16:45:00,38.8,28.4,29.83,SE,145,0.0,0.0,66,0.00,,,0.00,LWC V2.00 B2112,2013-02-19 00:45:00,
2013-02-18 16:50:00,38.8,28.4,29.83,SE,145,0.0,0.0,66,0.00,,,0.00,LWC V2.00 B2112,2013-02-19 00:50:00,
2013-02-18 16:55:00,38.6,29.0,29.83,SE,145,0.0,0.0,68,0.00,,,0.00,LWC V2.00 B2112,2013-02-19 00:55:00,
2013-02-18 17:00:00,38.6,29.0,29.83,SE,145,0.0,0.0,68,0.00,,,0.00,LWC V2.00 B2112,2013-02-19 01:00:00,
2013-02-18 17:05:00,38.2,29.6,29.83,SE,145,0.0,0.0,71,0.00,,,0.00,LWC V2.00 B2112,2013-02-19 01:05:00,
2013-02-18 17:10:00,37.6,29.7,29.83,SE,145,0.0,0.0,73,0.00,,,0.00,LWC V2.00 B2112,2013-02-19 01:10:00,
2013-02-18 17:15:00,37.5,30.0,29.82,SE,145,0.0,0.0,74,0.00,,,0.00,LWC V2.00 B2112,2013-02-19 01:15:00,
2013-02-18 17:20:00,37.2,29.4,29.82,SE,145,0.0,0.0,73,0.00,,,0.00,LWC V2.00 B2112,2013-02-19 01:20:00,
2013-02-18 17:25:00,36.9,29.4,29.82,SE,145,0.0,0.0,74,0.00,,,0.00,LWC V2.00 B2112,2013-02-19 01:25:00,
2013-02-18 17:30:00,36.8,29.3,29.82,SE,145,1.0,2.0,74,0.00,,,0.00,LWC V2.00 B2112,2013-02-19 01:30:00,
2013-02-18 17:35:00,36.6,29.1,29.82,SE,145,0.0,0.0,74,0.00,,,0.00,LWC V2.00 B2112,2013-02-19 01:35:00,
2013-02-18 17:40:00,36.5,29.3,29.82,SE,145,0.0,0.0,75,0.00,,,0.00,LWC V2.00 B2112,2013-02-19 01:40:00,
2013-02-18 17:45:00,36.3,29.1,29.82,SE,145,0.0,0.0,75,0.00,,,0.00,LWC V2.00 B2112,2013-02-19 01:45:00,
2013-02-18 17:50:00,36.2,29.1,29.82,SE,145,0.0,0.0,75,0.00,,,0.00,LWC V2.00 B2112,2013-02-19 01:50:00,
2013-02-18 17:55:00,36.2,29.1,29.82,SE,145,1.0,2.0,75,0.00,,,0.00,LWC V2.00 B2112,2013-02-19 01:55:00,
2013-02-18 18:00:00,36.0,28.9,29.82,SE,145,0.0,1.0,75,0.00,,,0.00,LWC V2.00 B2112,2013-02-19 02:00:00,
2013-02-18 18:05:00,36.0,28.9,29.82,SE,145,0.0,0.0,75,0.00,,,0.00,LWC V2.00 B2112,2013-02-19 02:05:00,
2013-02-18 18:10:00,35.9,28.8,29.82,SE,145,0.0,0.0,75,0.00,,,0.00,LWC V2.00 B2112,2013-02-19 02:10:00,
2013-02-18 18:15:00,35.8,29.0,29.82,SE,145,0.0,0.0,76,0.00,,,0.00,LWC V2.00 B2112,2013-02-19 02:15:00,
2013-02-18 18:20:00,35.3,28.8,29.82,SE,145,0.0,0.0,77,0.00,,,0.00,LWC V2.00 B2112,2013-02-19 02:20:00,
2013-02-18 18:25:00,35.2,28.7,29.82,SE,145,0.0,0.0,77,0.00,,,0.00,LWC V2.00 B2112,2013-02-19 02:25:00,
2013-02-18 18:30:00,35.0,29.8,29.82,SE,145,0.0,0.0,81,0.00,,,0.00,LWC V2.00 B2112,2013-02-19 02:30:00,
2013-02-18 18:35:00,34.7,29.2,29.82,SE,145,0.0,0.0,80,0.00,,,0.00,LWC V2.00 B2112,2013-02-19 02:35:00,
2013-02-18 18:40:00,34.4,29.2,29.82,SE,145,0.0,0.0,81,0.00,,,0.00,LWC V2.00 B2112,2013-02-19 02:40:00,
2013-02-18 18:45:00,34.3,28.8,29.82,SE,145,0.0,0.0,80,0.00,,,0.00,LWC V2.00 B2112,2013-02-19 02:45:00,
2013-02-18 18:50:00,34.0,28.8,29.82,SE,145,0.0,0.0,81,0.00,,,0.00,LWC V2.00 B2112,2013-02-19 02:50:00,
2013-02-18 18:55:00,33.8,28.6,29.82,SE,145,0.0,0.0,81,0.00,,,0.00,LWC V2.00 B2112,2013-02-19 02:55:00,
2013-02-18 19:00:00,33.7,28.8,29.81,SE,145,0.0,0.0,82,0.00,,,0.00,LWC V2.00 B2112,2013-02-19 03:00:00,
2013-02-18 19:05:00,33.5,28.6,29.81,SE,145,0.0,0.0,82,0.00,,,0.00,LWC V2.00 B2112,2013-02-19 03:05:00,
2013-02-18 19:10:00,33.2,28.3,29.81,SE,145,0.0,0.0,82,0.00,,,0.00,LWC V2.00 B2112,2013-02-19 03:10:00,
2013-02-18 19:15:00,33.1,28.5,29.81,SE,145,0.0,0.0,83,0.00,,,0.00,LWC V2.00 B2112,2013-02-19 03:15:00,
2013-02-18 19:20:00,32.9,28.6,29.81,SE,145,0.0,0.0,84,0.00,,,0.00,LWC V2.00 B2112,2013-02-19 03:20:00,
2013-02-18 19:25:00,32.7,28.7,29.81,SE,145,0.0,0.0,85,0.00,,,0.00,LWC V2.00 B2112,2013-02-19 03:25:00,
2013-02-18 19:30:00,32.5,28.8,29.80,SE,145,0.0,0.0,86,0.00,,,0.00,LWC V2.00 B2112,2013-02-19 03:30:00,
2013-02-18 19:35:00,32.4,28.7,29.80,SE,145,0.0,0.0,86,0.00,,,0.00,LWC V2.00 B2112,2013-02-19 03:35:00,
2013-02-18 19:40:00,32.4,28.4,29.80,SE,145,0.0,0.0,85,0.00,,,0.00,LWC V2.00 B2112,2013-02-19 03:40:00,
2013-02-18 19:45:00,32.4,28.1,29.80,SSE,147,0.0,0.0,84,0.00,,,0.00,LWC V2.00 B2112,2013-02-19 03:45:00,
2013-02-18 19:50:00,32.4,28.1,29.80,SSE,147,0.0,0.0,84,0.00,,,0.00,LWC V2.00 B2112,2013-02-19 03:50:00,
2013-02-18 19:55:00,32.4,28.4,29.80,SSW,195,1.0,2.0,85,0.00,,,0.00,LWC V2.00 B2112,2013-02-19 03:55:00,
2013-02-18 20:00:00,32.2,27.9,29.80,SW,234,0.0,4.0,84,0.00,,,0.00,LWC V2.00 B2112,2013-02-19 04:00:00,
2013-02-18 20:05:00,32.1,28.4,29.80,SW,234,0.0,2.0,86,0.00,,,0.00,LWC V2.00 B2112,2013-02-19 04:05:00,
2013-02-18 20:10:00,31.8,28.1,29.80,SW,234,1.0,2.0,86,0.00,,,0.00,LWC V2.00 B2112,2013-02-19 04:10:00,
2013-02-18 20:15:00,31.9,28.5,29.79,SW,234,0.0,2.0,87,0.00,,,0.00,LWC V2.00 B2112,2013-02-19 04:15:00,
2013-02-18 20:20:00,31.9,28.2,29.79,SW,234,0.0,0.0,86,0.00,,,0.00,LWC V2.00 B2112,2013-02-19 04:20:00,
2013-02-18 20:26:00,31.8,28.1,29.79,SW,234,0.0,1.0,86,0.00,,,0.00,LWC V2.00 B2112,2013-02-19 04:26:00,
2013-02-18 20:31:00,31.6,27.6,29.79,SW,234,0.0,0.0,85,0.00,,,0.00,LWC V2.00 B2112,2013-02-19 04:31:00,
2013-02-18 20:36:00,31.5,27.5,29.79,SW,234,0.0,0.0,85,0.00,,,0.00,LWC V2.00 B2112,2013-02-19 04:36:00,
2013-02-18 20:41:00,31.3,27.9,29.79,SW,234,0.0,0.0,87,0.00,,,0.00,LWC V2.00 B2112,2013-02-19 04:41:00,
2013-02-18 20:46:00,31.2,27.5,29.79,SW,234,0.0,0.0,86,0.00,,,0.00,LWC V2.00 B2112,2013-02-19 04:46:00,
2013-02-18 20:51:00,31.0,27.6,29.79,SW,234,0.0,0.0,87,0.00,,,0.00,LWC V2.00 B2112,2013-02-19 04:51:00,
2013-02-18 20:56:00,31.0,27.6,29.79,SW,234,0.0,0.0,87,0.00,,,0.00,LWC V2.00 B2112,2013-02-19 04:56:00,
2013-02-18 21:00:00,31.0,27.6,29.79,SW,234,0.0,0.0,87,0.00,,,0.00,LWC V2.00 B2112,2013-02-19 05:00:00,
2013-02-18 21:05:00,31.0,27.9,29.79,SW,234,0.0,0.0,88,0.00,,,0.00,LWC V2.00 B2112,2013-02-19 05:05:00,
2013-02-18 21:10:00,31.0,27.9,29.79,SW,234,0.0,0.0,88,0.00,,,0.00,LWC V2.00 B2112,2013-02-19 05:10:00,
2013-02-18 21:15:00,31.0,27.9,29.79,SW,234,0.0,0.0,88,0.00,,,0.00,LWC V2.00 B2112,2013-02-19 05:15:00,
2013-02-18 21:20:00,31.0,27.9,29.79,SW,234,0.0,0.0,88,0.00,,,0.00,LWC V2.00 B2112,2013-02-19 05:20:00,
2013-02-18 21:25:00,30.9,27.8,29.79,SW,234,0.0,0.0,88,0.00,,,0.00,LWC V2.00 B2112,2013-02-19 05:25:00,
2013-02-18 21:30:00,30.7,27.6,29.78,SW,234,0.0,0.0,88,0.00,,,0.00,LWC V2.00 B2112,2013-02-19 05:30:00,
2013-02-18 21:35:00,30.7,27.6,29.78,SW,234,0.0,0.0,88,0.00,,,0.00,LWC V2.00 B2112,2013-02-19 05:35:00,
2013-02-18 21:40:00,30.6,27.5,29.78,SW,234,0.0,0.0,88,0.00,,,0.00,LWC V2.00 B2112,2013-02-19 05:40:00,
2013-02-18 21:45:00,30.4,27.3,29.79,SW,234,0.0,0.0,88,0.00,,,0.00,LWC V2.00 B2112,2013-02-19 05:45:00,
2013-02-18 21:50:00,30.4,27.3,29.79,SW,234,0.0,0.0,88,0.00,,,0.00,LWC V2.00 B2112,2013-02-19 05:50:00,
2013-02-18 21:55:00,30.1,27.0,29.79,SW,234,0.0,0.0,88,0.00,,,0.00,LWC V2.00 B2112,2013-02-19 05:55:00,
2013-02-18 22:00:00,30.0,26.9,29.78,SW,234,0.0,0.0,88,0.00,,,0.00,LWC V2.00 B2112,2013-02-19 06:00:00,
2013-02-18 22:05:00,29.7,26.3,29.78,SW,234,0.0,0.0,87,0.00,,,0.00,LWC V2.00 B2112,2013-02-19 06:05:00,
2013-02-18 22:10:00,29.5,26.4,29.78,SW,234,0.0,0.0,88,0.00,,,0.00,LWC V2.00 B2112,2013-02-19 06:10:00,
2013-02-18 22:15:00,29.4,26.6,29.78,SW,234,0.0,0.0,89,0.00,,,0.00,LWC V2.00 B2112,2013-02-19 06:15:00,
2013-02-18 22:20:00,29.3,26.5,29.78,SW,234,0.0,0.0,89,0.00,,,0.00,LWC V2.00 B2112,2013-02-19 06:20:00,
2013-02-18 22:25:00,29.1,26.3,29.78,SW,234,0.0,0.0,89,0.00,,,0.00,LWC V2.00 B2112,2013-02-19 06:25:00,
2013-02-18 22:30:00,29.0,25.9,29.78,SW,234,0.0,1.0,88,0.00,,,0.00,LWC V2.00 B2112,2013-02-19 06:30:00,
2013-02-18 22:35:00,29.1,26.3,29.78,SW,234,2.0,4.0,89,0.00,,,0.00,LWC V2.00 B2112,2013-02-19 06:35:00,
2013-02-18 22:40:00,29.5,26.4,29.78,SW,234,4.0,4.0,88,0.00,,,0.00,LWC V2.00 B2112,2013-02-19 06:40:00,
2013-02-18 22:45:00,29.5,26.4,29.78,WSW,244,2.0,2.0,88,0.00,,,0.00,LWC V2.00 B2112,2013-02-19 06:45:00,
2013-02-18 22:50:00,29.5,26.1,29.78,WSW,244,0.0,2.0,87,0.00,,,0.00,LWC V2.00 B2112,2013-02-19 06:50:00,
2013-02-18 22:55:00,29.4,26.0,29.78,WSW,244,0.0,0.0,87,0.00,,,0.00,LWC V2.00 B2112,2013-02-19 06:55:00,
2013-02-18 23:00:00,29.3,25.9,29.77,WSW,244,0.0,0.0,87,0.00,,,0.00,LWC V2.00 B2112,2013-02-19 07:00:00,
2013-02-18 23:05:00,28.8,25.7,29.77,WSW,244,0.0,0.0,88,0.00,,,0.00,LWC V2.00 B2112,2013-02-19 07:05:00,
2013-02-18 23:10:00,28.5,25.4,29.77,WSW,244,1.0,2.0,88,0.00,,,0.00,LWC V2.00 B2112,2013-02-19 07:10:00,
2013-02-18 23:15:00,28.8,25.7,29.77,WSW,244,0.0,2.0,88,0.00,,,0.00,LWC V2.00 B2112,2013-02-19 07:15:00,
2013-02-18 23:20:00,29.1,26.0,29.77,WSW,244,1.0,4.0,88,0.00,,,0.00,LWC V2.00 B2112,2013-02-19 07:20:00,
2013-02-18 23:25:00,29.0,25.6,29.77,WSW,244,2.0,4.0,87,0.00,,,0.00,LWC V2.00 B2112,2013-02-19 07:25:00,
2013-02-18 23:30:00,29.0,25.6,29.77,WSW,244,1.0,4.0,87,0.00,,,0.00,LWC V2.00 B2112,2013-02-19 07:30:00,
2013-02-18 23:35:00,29.0,25.6,29.77,WSW,244,0.0,0.0,87,0.00,,,0.00,LWC V2.00 B2112,2013-02-19 07:35:00,
2013-02-18 23:40:00,28.8,25.4,29.77,WSW,244,0.0,0.0,87,0.00,,,0.00,LWC V2.00 B2112,2013-02-19 07:40:00,
2013-02-18 23:45:00,28.7,25.3,29.77,WSW,244,0.0,0.0,87,0.00,,,0.00,LWC V2.00 B2112,2013-02-19 07:45:00,
2013-02-18 23:50:00,28.8,26.0,29.77,WSW,244,1.0,2.0,89,0.00,,,0.00,LWC V2.00 B2112,2013-02-19 07:50:00,
2013-02-18 23:55:00,29.0,25.6,29.77,WSW,244,2.0,4.0,87,0.00,,,0.00,LWC V2.00 B2112,2013-02-19 07:55:00,